Time;durP1;ratioP1;P1;durP2;ratioP2;P2;SDS_P1;SDS_P2;PMS_P1;PMS_P2;Temp;Humidity;BMP_temperature;BMP_pressure;BME280_temperature;BME280_humidity;BME280_pressure;Samples;Min_cycle;Max_cycle;Signal;HPM_P1;HPM_P2
2023/10/05 00:01:24;;;;;;;4.30;2.70;;;;;;;9.59;72.53;99608.70;109289;1254;73043;-23
2023/10/05 00:03:52;;;;;;;5.00;2.50;;;;;;;9.37;72.80;99610.70;109272;1256;71400;-23
2023/10/05 00:06:24;;;;;;;5.40;3.00;;;;;;;9.11;73.40;99615.33;109293;1256;60052;-23
2023/10/05 00:08:53;;;;;;;7.20;3.00;;;;;;;8.83;74.56;99617.31;109141;1256;59993;-23
2023/10/05 00:11:30;;;;;;;6.10;3.10;;;;;;;8.57;75.73;99623.15;109166;1255;71216;-23
2023/10/05 00:13:59;;;;;;;6.80;3.10;;;;;;;8.32;76.88;99626.22;109091;1260;74309;-23
2023/10/05 00:16:36;;;;;;;5.60;2.20;;;;;;;8.15;77.80;99629.40;109112;1257;72655;-23
2023/10/05 00:19:11;;;;;;;4.80;2.20;;;;;;;8.56;77.57;99627.88;109114;1258;60078;-23
2023/10/05 00:22:02;;;;;;;4.10;2.40;;;;;;;9.02;75.54;99627.55;109148;1255;60249;-23
2023/10/05 00:24:39;;;;;;;5.50;2.80;;;;;;;8.99;74.96;99632.61;109118;1256;73092;-23
2023/10/05 00:27:09;;;;;;;5.20;3.10;;;;;;;8.79;75.47;99630.91;109266;1255;73192;-23
2023/10/05 00:29:46;;;;;;;6.20;3.50;;;;;;;8.51;76.41;99639.46;109265;1255;70467;-22
2023/10/05 00:32:59;;;;;;;6.40;2.70;;;;;;;8.26;77.41;99639.06;109107;1257;58852;-23
2023/10/05 00:35:24;;;;;;;6.90;3.70;;;;;;;8.02;78.27;99639.89;109338;1254;58772;-22
2023/10/05 00:37:55;;;;;;;5.70;1.70;;;;;;;7.84;79.31;99632.83;109139;1256;73087;-22
2023/10/05 00:40:43;;;;;;;5.70;2.30;;;;;;;8.32;78.79;99640.96;109098;1256;74483;-23
2023/10/05 00:43:28;;;;;;;4.60;2.60;;;;;;;8.84;76.38;99635.45;109238;1256;72700;-23
2023/10/05 00:45:59;;;;;;;4.20;2.40;;;;;;;8.83;75.61;99630.34;109384;1254;58876;-23
2023/10/05 00:48:34;;;;;;;3.90;2.70;;;;;;;8.62;76.21;99636.15;109206;1257;60485;-23
2023/10/05 00:51:38;;;;;;;4.60;2.80;;;;;;;8.36;77.08;99635.14;109152;1256;71887;-23
2023/10/05 00:53:56;;;;;;;6.70;3.20;;;;;;;8.11;78.10;99632.23;109241;1257;74325;-23
2023/10/05 00:56:24;;;;;;;8.10;2.80;;;;;;;7.95;78.58;99630.63;109035;1256;72657;-23
2023/10/05 00:58:55;;;;;;;6.20;2.90;;;;;;;7.80;79.04;99631.16;109292;1256;58873;-23
2023/10/05 01:01:27;;;;;;;4.40;2.10;;;;;;;7.68;79.93;99631.36;109187;1257;60053;-23
2023/10/05 01:06:29;;;;;;;4.70;2.60;;;;;;;8.74;77.37;99636.44;109257;1256;73162;-23
2023/10/05 01:09:00;;;;;;;;;;;;;;;8.75;76.20;99636.55;109197;1257;72667;-23
2023/10/05 01:12:22;;;;;;;5.10;2.50;;;;;;;8.53;76.52;99641.71;109197;1256;58801;-23
2023/10/05 01:14:17;;;;;;;6.20;2.70;;;;;;;8.27;77.58;99642.45;109085;1257;60033;-23
2023/10/05 01:16:45;;;;;;;6.40;3.10;;;;;;;8.07;78.43;99642.81;109136;1255;72999;-23
2023/10/05 01:19:13;;;;;;;4.40;2.70;;;;;;;7.87;79.44;99641.63;109180;1255;74320;-23
2023/10/05 01:21:43;;;;;;;5.60;2.90;;;;;;;7.70;80.04;99638.66;109131;1257;72698;-23
2023/10/05 01:24:11;;;;;;;6.10;2.30;;;;;;;7.61;80.60;99642.68;109137;1257;60373;-23
2023/10/05 01:26:40;;;;;;;5.30;2.00;;;;;;;8.08;80.36;99641.06;109231;1256;58808;-23
2023/10/05 01:29:08;;;;;;;6.70;2.70;;;;;;;8.61;78.30;99642.79;109122;1259;73027;-23
2023/10/05 01:31:39;;;;;;;5.10;2.70;;;;;;;8.69;77.44;99639.20;109118;1256;72627;-23
2023/10/05 01:34:08;;;;;;;4.90;3.10;;;;;;;8.54;77.35;99644.11;109143;1256;71501;-23
2023/10/05 01:36:35;;;;;;;9.20;3.20;;;;;;;8.32;77.86;99645.84;109167;1257;58877;-23
2023/10/05 01:39:08;;;;;;;4.80;2.60;;;;;;;8.09;78.74;99645.30;109245;1255;60011;-23
2023/10/05 01:41:37;;;;;;;5.00;2.90;;;;;;;7.87;79.77;99643.90;109149;1257;71945;-23
2023/10/05 01:44:07;;;;;;;4.70;2.70;;;;;;;7.70;80.36;99647.33;109193;1257;74334;-23
2023/10/05 01:46:36;;;;;;;6.30;1.60;;;;;;;7.60;81.05;99645.27;109175;1256;72684;-23
2023/10/05 01:49:04;;;;;;;2.80;1.40;;;;;;;8.12;81.28;99641.83;109156;1257;60090;-23
2023/10/05 01:51:33;;;;;;;5.80;2.30;;;;;;;8.73;79.38;99639.13;109116;1257;58779;-23
2023/10/05 01:54:11;;;;;;;8.30;2.50;;;;;;;8.85;78.30;99642.53;109162;1257;73498;-23
2023/10/05 01:56:43;;;;;;;5.70;2.60;;;;;;;8.68;78.16;99651.38;109035;1255;73513;-23
2023/10/05 01:59:12;;;;;;;4.90;2.50;;;;;;;8.46;78.43;99650.10;109170;1255;72620;-23
2023/10/05 02:01:40;;;;;;;5.60;2.50;;;;;;;8.22;79.57;99648.50;109245;1256;58835;-23
2023/10/05 02:04:09;;;;;;;5.90;2.50;;;;;;;8.05;80.54;99646.08;109244;1256;60029;-23
2023/10/05 02:06:40;;;;;;;4.30;1.80;;;;;;;7.89;81.51;99648.07;109146;1256;72348;-23
2023/10/05 02:09:13;;;;;;;6.30;2.00;;;;;;;8.38;81.28;99646.66;109045;1256;74366;-23
2023/10/05 02:11:41;;;;;;;5.80;2.40;;;;;;;8.94;79.14;99642.11;109063;1256;71464;-23
2023/10/05 02:14:12;;;;;;;5.60;2.20;;;;;;;9.02;78.14;99639.65;109259;1256;58843;-23
2023/10/05 02:16:41;;;;;;;5.10;2.30;;;;;;;8.87;77.96;99642.02;109185;1256;60122;-23
2023/10/05 02:19:09;;;;;;;6.90;2.60;;;;;;;8.60;78.57;99643.55;109161;1256;73863;-22
2023/10/05 02:21:37;;;;;;;5.20;2.90;;;;;;;8.33;79.88;99644.90;109120;1257;74325;-23
2023/10/05 02:24:41;;;;;;;4.60;2.50;;;;;;;8.13;80.53;99644.70;109148;1256;71121;-22
2023/10/05 02:29:29;;;;;;;5.10;2.40;;;;;;;8.52;80.91;99647.13;109168;1256;58781;-23
2023/10/05 02:34:47;;;;;;;4.60;2.60;;;;;;;8.85;78.76;99643.38;109104;1256;74417;-23
2023/10/05 02:37:19;;;;;;;6.60;2.50;;;;;;;8.65;79.22;99642.59;109118;1256;70711;-23
2023/10/05 02:39:48;;;;;;;5.90;2.20;;;;;;;8.46;79.64;99642.48;109168;1256;60078;-23
2023/10/05 02:42:21;;;;;;;8.00;2.50;;;;;;;8.26;80.32;99643.94;109146;1256;60048;-22
2023/10/05 02:44:53;;;;;;;4.70;2.10;;;;;;;8.08;81.43;99643.61;109140;1256;73828;-22
2023/10/05 02:47:24;;;;;;;3.00;2.10;;;;;;;8.52;81.12;99643.17;109138;1256;74342;-23
2023/10/05 02:49:52;;;;;;;4.10;2.20;;;;;;;9.05;79.12;99643.30;109062;1256;71788;-22
2023/10/05 02:52:20;;;;;;;6.90;2.70;;;;;;;9.07;78.25;99641.41;109109;1256;60037;-23
2023/10/05 02:54:48;;;;;;;5.80;2.70;;;;;;;8.86;78.23;99640.20;109146;1257;60055;-22
2023/10/05 02:57:16;;;;;;;6.50;3.00;;;;;;;8.59;79.26;99648.83;109143;1256;73857;-23
2023/10/05 02:59:45;;;;;;;5.00;2.50;;;;;;;8.35;79.95;99645.96;109113;1256;74311;-23
2023/10/05 03:02:16;;;;;;;4.90;2.90;;;;;;;8.11;80.84;99645.89;109105;1257;72679;-22
2023/10/05 03:04:45;;;;;;;6.00;2.70;;;;;;;7.91;81.87;99643.64;109139;1256;60381;-23
2023/10/05 03:07:16;;;;;;;7.90;2.10;;;;;;;8.32;81.67;99643.57;109173;1257;60090;-23
2023/10/05 03:09:49;;;;;;;4.40;2.40;;;;;;;8.79;79.39;99643.77;109125;1257;73880;-23
2023/10/05 03:12:20;;;;;;;4.00;2.20;;;;;;;8.82;78.52;99642.19;109089;1257;73043;-23
2023/10/05 03:14:51;;;;;;;4.20;2.70;;;;;;;8.60;78.59;99646.67;109159;1257;72708;-22
2023/10/05 03:17:19;;;;;;;4.60;2.80;;;;;;;8.37;79.05;99644.98;109115;1257;60083;-23
2023/10/05 03:19:50;;;;;;;5.40;2.80;;;;;;;8.10;79.87;99644.02;109083;1256;60007;-23
2023/10/05 03:22:23;;;;;;;4.90;2.90;;;;;;;7.82;81.13;99644.17;109079;1257;73801;-23
2023/10/05 03:24:53;;;;;;;4.40;2.20;;;;;;;7.62;82.21;99643.48;109128;1256;73060;-23
2023/10/05 03:27:22;;;;;;;4.80;2.50;;;;;;;8.06;82.04;99642.04;109132;1257;71411;-23
2023/10/05 03:29:52;;;;;;;6.40;2.80;;;;;;;8.53;79.95;99642.61;109064;1257;60180;-22
2023/10/05 03:32:20;;;;;;;7.20;2.80;;;;;;;8.53;79.10;99648.15;109175;1257;58948;-23
2023/10/05 03:34:55;;;;;;;5.30;2.70;;;;;;;8.31;79.50;99650.88;109135;1257;72754;-23
2023/10/05 03:37:24;;;;;;;5.80;3.00;;;;;;;8.02;80.27;99646.78;109133;1257;74427;-23
2023/10/05 03:40:07;;;;;;;5.70;2.90;;;;;;;7.75;81.20;99646.13;109045;1259;71226;-22
2023/10/05 03:42:35;;;;;;;7.10;3.20;;;;;;;7.51;82.10;99649.09;109111;1257;58818;-23
2023/10/05 03:45:03;;;;;;;5.60;2.10;;;;;;;7.34;82.99;99648.00;109086;1257;59992;-22
2023/10/05 03:47:37;;;;;;;5.50;2.30;;;;;;;7.77;82.83;99651.23;108990;1257;72808;-22
2023/10/05 03:50:08;;;;;;;6.10;2.80;;;;;;;8.33;80.98;99653.21;109175;1256;72838;-23
2023/10/05 03:52:51;;;;;;;5.60;2.80;;;;;;;8.33;79.77;99657.69;108916;1260;72741;-23
2023/10/05 03:55:19;;;;;;;5.40;2.80;;;;;;;8.14;79.83;99655.94;108790;1260;59366;-23
2023/10/05 03:57:52;;;;;;;6.80;3.20;;;;;;;7.86;80.57;99657.11;108837;1260;58856;-23
2023/10/05 04:00:23;;;;;;;5.50;3.30;;;;;;;7.59;81.61;99656.79;108814;1260;72579;-22
2023/10/05 04:02:56;;;;;;;5.30;2.90;;;;;;;7.40;82.38;99657.39;108818;1260;73397;-23
2023/10/05 04:05:25;;;;;;;5.50;2.50;;;;;;;7.26;82.52;99656.59;108739;1261;72653;-23
2023/10/05 04:08:07;;;;;;;6.30;2.30;;;;;;;7.74;82.43;99658.27;108791;1260;58871;-23
2023/10/05 04:10:46;;;;;;;6.20;2.70;;;;;;;8.34;80.58;99662.30;108772;1263;60763;-23
2023/10/05 04:13:24;;;;;;;6.70;2.80;;;;;;;8.38;79.58;99664.64;108771;1261;72859;-23
2023/10/05 04:15:55;;;;;;;5.50;2.70;;;;;;;8.22;79.37;99665.64;108854;1262;74315;-23
2023/10/05 04:18:26;;;;;;;8.80;3.30;;;;;;;7.99;79.52;99666.33;108768;1263;70411;-23
2023/10/05 04:20:57;;;;;;;7.10;2.80;;;;;;;7.79;79.89;99672.18;108790;1262;60057;-23
2023/10/05 04:23:28;;;;;;;5.30;3.00;;;;;;;7.60;80.51;99667.09;108860;1258;59006;-23
2023/10/05 04:25:58;;;;;;;4.70;2.40;;;;;;;7.46;81.25;99671.17;109000;1258;73893;-23
2023/10/05 04:28:31;;;;;;;8.80;2.50;;;;;;;7.93;81.49;99672.38;108970;1259;74551;-23
2023/10/05 04:31:06;;;;;;;6.30;2.60;;;;;;;8.52;80.24;99676.58;108954;1258;71540;-23
2023/10/05 04:33:39;;;;;;;4.70;2.90;;;;;;;8.59;79.32;99677.36;108997;1257;60170;-23
2023/10/05 04:36:09;;;;;;;5.20;2.50;;;;;;;8.45;79.32;99674.76;108957;1258;58792;-23
2023/10/05 04:38:39;;;;;;;5.80;2.80;;;;;;;8.23;79.54;99675.39;108946;1258;71728;-23
2023/10/05 04:41:12;;;;;;;8.60;3.20;;;;;;;7.99;80.25;99673.06;108887;1258;74569;-23
2023/10/05 04:43:43;;;;;;;7.00;3.30;;;;;;;7.79;80.78;99673.05;108940;1258;72652;-23
2023/10/05 04:46:18;;;;;;;3.00;2.20;;;;;;;7.66;81.99;99672.29;108950;1257;62082;-23
2023/10/05 04:48:55;;;;;;;5.80;2.50;;;;;;;8.21;81.49;99673.48;109089;1258;60054;-23
2023/10/05 04:51:30;;;;;;;6.40;2.80;;;;;;;8.78;79.95;99673.41;108971;1258;72554;-23
2023/10/05 04:54:01;;;;;;;3.90;2.40;;;;;;;8.90;78.98;99670.36;108956;1257;73194;-23
2023/10/05 04:56:43;;;;;;;8.70;2.60;;;;;;;8.83;79.09;99671.55;108948;1258;72477;-23
2023/10/05 05:12:03;;;;;;;6.20;3.30;;;;;;;9.78;78.67;99676.21;102640;1293;599909;-22
2023/10/05 05:14:35;;;;;;;7.80;2.70;;;;;;;10.02;77.22;99673.41;104871;1266;61264;-22
2023/10/05 05:17:06;;;;;;;5.80;2.90;;;;;;;9.80;77.31;99675.41;104830;1271;61235;-22
2023/10/05 05:19:38;;;;;;;5.00;2.80;;;;;;;9.61;78.49;99674.10;104824;1272;73017;-22
2023/10/05 05:22:07;;;;;;;8.10;3.20;;;;;;;9.47;78.79;99673.60;105027;1266;77114;-22
2023/10/05 05:24:35;;;;;;;5.40;3.00;;;;;;;9.35;79.23;99677.52;102634;1267;3109448;-24
2023/10/05 05:27:04;;;;;;;11.00;2.80;;;;;;;9.23;80.68;99674.35;104979;1269;61177;-22
2023/10/05 05:29:33;;;;;;;6.10;2.60;;;;;;;9.69;79.96;99676.47;105406;1256;61170;-21
2023/10/05 05:32:19;;;;;;;6.90;2.90;;;;;;;10.14;78.39;99671.84;105400;1265;70890;-23
2023/10/05 05:34:50;;;;;;;9.80;3.10;;;;;;;10.19;78.07;99673.46;105567;1257;74688;-24
2023/10/05 05:37:25;;;;;;;6.40;3.10;;;;;;;10.09;78.43;99675.02;105573;1257;72469;-24
2023/10/05 05:39:58;;;;;;;5.80;3.30;;;;;;;9.91;79.15;99676.72;105351;1260;61148;-23
2023/10/05 05:42:30;;;;;;;5.60;3.70;;;;;;;9.81;80.04;99682.61;105359;1257;62023;-24
2023/10/05 05:44:58;;;;;;;8.00;3.10;;;;;;;9.76;80.56;99681.39;105410;1262;72018;-23
2023/10/05 05:47:31;;;;;;;11.70;3.40;;;;;;;10.24;79.73;99683.85;105551;1257;74311;-25
2023/10/05 05:50:01;;;;;;;7.40;3.20;;;;;;;10.71;77.58;99687.02;105621;1263;74968;-23
2023/10/05 05:52:28;;;;;;;7.60;3.60;;;;;;;10.78;76.95;99692.41;105551;1268;61109;-23
2023/10/05 05:55:03;;;;;;;8.60;3.60;;;;;;;10.63;77.19;99690.52;105591;1262;62264;-23
2023/10/05 05:57:30;;;;;;;11.80;3.80;;;;;;;10.46;77.96;99690.70;105616;1257;75084;-25
2023/10/05 06:00:10;;;;;;;10.00;3.50;;;;;;;10.26;78.88;99690.11;105611;1263;74294;-24
2023/10/05 06:02:40;;;;;;;5.80;3.00;;;;;;;10.22;79.21;99694.89;105605;1263;72637;-22
2023/10/05 06:05:09;;;;;;;5.50;2.90;;;;;;;10.73;78.38;99696.25;105434;1263;62328;-23
2023/10/05 06:07:38;;;;;;;8.40;3.50;;;;;;;11.12;76.75;99698.29;105516;1263;62025;-24
2023/10/05 06:10:14;;;;;;;9.30;3.50;;;;;;;11.12;76.33;99698.63;105517;1263;71058;-24
2023/10/05 06:12:48;;;;;;;7.90;3.40;;;;;;;10.92;76.85;99699.75;105505;1257;76650;-24
2023/10/05 06:15:15;;;;;;;7.70;4.10;;;;;;;10.79;77.25;99700.16;105238;1264;73016;-24
2023/10/05 06:17:46;;;;;;;5.40;2.80;;;;;;;10.67;77.83;99699.77;105429;1262;61137;-24
2023/10/05 06:20:15;;;;;;;5.20;2.50;;;;;;;10.60;78.19;99697.36;105352;1256;61160;-23
2023/10/05 06:22:44;;;;;;;4.70;2.50;;;;;;;11.06;77.37;99695.30;105422;1257;75352;-23
2023/10/05 06:25:16;;;;;;;6.40;3.20;;;;;;;11.46;75.78;99698.64;105017;1266;76419;-23
2023/10/05 06:27:44;;;;;;;6.40;2.70;;;;;;;11.49;75.20;99698.42;105267;1263;71631;-23
2023/10/05 06:30:13;;;;;;;10.30;3.50;;;;;;;11.36;75.45;99695.84;105546;1262;61205;-23
2023/10/05 06:32:44;;;;;;;9.90;3.20;;;;;;;11.19;75.95;99696.39;105356;1261;61350;-23
2023/10/05 06:35:13;;;;;;;7.40;3.40;;;;;;;11.09;75.99;99694.13;105451;1262;73402;-23
2023/10/05 06:37:41;;;;;;;7.70;3.20;;;;;;;11.00;77.14;99692.95;105582;1258;76549;-22
2023/10/05 06:40:12;;;;;;;3.80;2.10;;;;;;;11.00;77.54;99690.70;105618;1260;74304;-23
2023/10/05 06:42:42;;;;;;;6.30;3.40;;;;;;;11.57;76.08;99686.80;105235;1262;61177;-23
2023/10/05 06:45:13;;;;;;;8.80;2.80;;;;;;;12.07;73.44;99684.80;105619;1258;61153;-24
2023/10/05 06:47:42;;;;;;;7.40;2.90;;;;;;;12.10;73.45;99687.41;105467;1260;73286;-22
2023/10/05 06:50:10;;;;;;;7.60;3.70;;;;;;;12.04;73.43;99686.45;105521;1261;76452;-23
2023/10/05 06:52:46;;;;;;;8.10;3.20;;;;;;;11.97;73.70;99687.48;105505;1257;74434;-23
2023/10/05 06:55:17;;;;;;;6.60;3.40;;;;;;;11.90;73.92;99686.11;105483;1262;61435;-23
2023/10/05 06:57:46;;;;;;;5.30;3.20;;;;;;;11.82;74.39;99686.02;105393;1263;62061;-25
2023/10/05 07:00:20;;;;;;;6.70;3.30;;;;;;;11.73;74.17;99686.30;105253;1263;73513;-23
2023/10/05 07:02:58;;;;;;;7.50;2.20;;;;;;;11.68;74.67;99686.53;105243;1260;75279;-23
2023/10/05 07:05:29;;;;;;;6.80;3.40;;;;;;;12.27;73.54;99689.02;105288;1262;71859;-23
2023/10/05 07:07:57;;;;;;;8.60;3.40;;;;;;;12.69;71.24;99687.44;105568;1256;61195;-23
2023/10/05 07:10:27;;;;;;;4.60;2.70;;;;;;;12.74;70.69;99687.27;105608;1255;61058;-24
2023/10/05 07:12:55;;;;;;;5.10;2.90;;;;;;;12.69;71.21;99680.32;105674;1257;71429;-22
2023/10/05 07:15:23;;;;;;;8.90;3.50;;;;;;;12.59;71.10;99675.52;105599;1260;74850;-23
2023/10/05 07:17:51;;;;;;;9.80;4.10;;;;;;;12.46;71.73;99678.80;105581;1260;74982;-23
2023/10/05 07:20:19;;;;;;;11.50;3.50;;;;;;;12.43;71.72;99679.45;105554;1258;62064;-23
2023/10/05 07:22:47;;;;;;;12.10;3.60;;;;;;;12.41;71.95;99681.31;105578;1257;61090;-23
2023/10/05 07:25:17;;;;;;;7.70;3.10;;;;;;;12.45;72.10;99679.27;105239;1261;71879;-25
2023/10/05 07:27:47;;;;;;;9.30;2.60;;;;;;;12.49;72.04;99677.17;105255;1263;74730;-23
2023/10/05 07:30:16;;;;;;;7.90;2.40;;;;;;;13.15;70.63;99672.40;105350;1263;74660;-25
2023/10/05 07:32:44;;;;;;;5.10;2.40;;;;;;;13.67;68.64;99672.17;105569;1260;61265;-24
2023/10/05 07:35:24;;;;;;;7.10;2.90;;;;;;;13.88;66.91;99668.88;105619;1260;61185;-23
2023/10/05 07:37:52;;;;;;;3.80;2.40;;;;;;;13.79;66.79;99659.66;105654;1257;74963;-23
2023/10/05 07:40:20;;;;;;;8.30;3.10;;;;;;;13.72;66.61;99663.19;105439;1260;74357;-23
2023/10/05 07:42:49;;;;;;;7.00;2.70;;;;;;;13.69;67.16;99662.08;105521;1257;70994;-24
2023/10/05 07:45:17;;;;;;;9.20;3.60;;;;;;;13.64;66.76;99656.25;105528;1260;61243;-23
2023/10/05 07:47:46;;;;;;;7.80;2.90;;;;;;;13.61;67.45;99658.92;105693;1260;61176;-22
2023/10/05 07:50:14;;;;;;;8.40;2.90;;;;;;;13.67;66.54;99653.02;105676;1257;74143;-22
2023/10/05 07:52:48;;;;;;;7.30;3.00;;;;;;;13.63;66.54;99651.42;105659;1260;76597;-21
2023/10/05 07:55:16;;;;;;;;;;;;;;;13.61;66.70;99649.89;105515;1260;72926;-22
2023/10/05 07:57:44;;;;;;;12.60;2.80;;;;;;;13.58;66.31;99648.56;105397;1258;62059;-21
2023/10/05 08:00:13;;;;;;;5.40;2.20;;;;;;;13.64;66.58;99648.86;105370;1260;61169;-21
2023/10/05 08:02:41;;;;;;;6.40;2.70;;;;;;;13.70;66.01;99647.64;105624;1258;75300;-22
2023/10/05 08:05:12;;;;;;;6.40;2.30;;;;;;;13.79;65.36;99644.10;105639;1260;76590;-22
2023/10/05 08:07:40;;;;;;;3.30;2.20;;;;;;;13.84;65.30;99641.77;105522;1260;74142;-22
2023/10/05 08:10:21;;;;;;;5.60;2.70;;;;;;;13.84;65.31;99640.92;105246;1255;62279;-22
2023/10/05 08:12:49;;;;;;;3.60;2.10;;;;;;;14.00;64.89;99637.79;105528;1260;61492;-22
2023/10/05 08:15:19;;;;;;;6.00;2.40;;;;;;;14.09;64.01;99638.77;105469;1256;75324;-23
2023/10/05 08:17:48;;;;;;;5.70;2.50;;;;;;;14.02;63.52;99636.74;105382;1263;76656;-23
2023/10/05 08:20:20;;;;;;;6.40;2.00;;;;;;;13.86;63.85;99633.45;105118;1257;72269;-23
2023/10/05 08:22:56;;;;;;;6.10;2.50;;;;;;;13.99;63.79;99627.80;105546;1260;61125;-23
2023/10/05 08:25:25;;;;;;;6.90;2.70;;;;;;;14.08;63.53;99630.35;105620;1260;62299;-24
2023/10/05 08:27:55;;;;;;;6.00;2.60;;;;;;;14.16;63.49;99627.91;105636;1262;74138;-23
2023/10/05 08:30:26;;;;;;;8.90;2.40;;;;;;;14.22;63.33;99626.63;105651;1261;76261;-23
2023/10/05 08:32:56;;;;;;;7.60;2.90;;;;;;;14.37;63.25;99628.84;105594;1263;73607;-23
2023/10/05 08:35:40;;;;;;;5.60;2.50;;;;;;;14.33;63.59;99630.59;105569;1261;62418;-24
2023/10/05 08:38:15;;;;;;;9.60;2.80;;;;;;;14.48;62.79;99625.96;105452;1262;61082;-24
2023/10/05 08:40:45;;;;;;;8.40;2.80;;;;;;;14.36;62.60;99627.02;105648;1260;75263;-23
2023/10/05 08:43:16;;;;;;;7.40;2.60;;;;;;;14.33;62.81;99624.48;105630;1260;74341;-23
2023/10/05 08:45:51;;;;;;;7.60;2.70;;;;;;;14.56;62.35;99620.39;105560;1263;74689;-23
2023/10/05 08:48:39;;;;;;;7.40;2.50;;;;;;;14.84;61.07;99626.11;105279;1254;61223;-26
2023/10/05 08:51:11;;;;;;;5.80;2.40;;;;;;;14.94;60.40;99625.80;105436;1256;61154;-24
2023/10/05 08:53:48;;;;;;;7.90;2.10;;;;;;;15.09;59.45;99625.09;105532;1260;75343;-23
2023/10/05 08:56:18;;;;;;;6.60;1.90;;;;;;;15.18;58.75;99623.42;105391;1263;76559;-24
2023/10/05 08:58:46;;;;;;;6.60;2.20;;;;;;;15.32;58.61;99611.80;105299;1264;73223;-25
2023/10/05 09:01:24;;;;;;;5.30;1.70;;;;;;;15.53;58.01;99611.48;105423;1259;61925;-24
2023/10/05 09:06:52;;;;;;;4.60;2.20;;;;;;;15.61;56.00;99615.23;105595;1260;72947;-23
2023/10/05 09:09:51;;;;;;;5.70;2.20;;;;;;;15.80;55.58;99612.65;105550;1258;76686;-22
2023/10/05 09:12:37;;;;;;;9.50;2.40;;;;;;;15.83;55.55;99612.86;105344;1260;74259;-22
2023/10/05 09:15:26;;;;;;;7.10;1.90;;;;;;;15.87;54.99;99615.14;105437;1262;61601;-23
2023/10/05 09:17:56;;;;;;;5.50;1.80;;;;;;;15.91;55.03;99605.33;105612;1262;62340;-23
2023/10/05 09:20:30;;;;;;;5.30;2.30;;;;;;;15.93;54.81;99601.41;105604;1263;73428;-23
2023/10/05 09:23:00;;;;;;;11.50;2.40;;;;;;;16.04;54.70;99604.46;105581;1262;76469;-23
2023/10/05 09:25:38;;;;;;;7.90;2.30;;;;;;;16.13;54.08;99597.63;105177;1263;74644;-23
2023/10/05 09:28:15;;;;;;;10.90;2.60;;;;;;;16.10;54.53;99598.15;105488;1263;61227;-23
2023/10/05 09:30:51;;;;;;;4.60;1.60;;;;;;;15.83;54.62;99596.06;105358;1263;61154;-22
2023/10/05 09:33:19;;;;;;;9.00;2.40;;;;;;;15.81;54.67;99597.50;105373;1257;73412;-23
2023/10/05 09:35:46;;;;;;;5.00;2.20;;;;;;;15.98;53.09;99594.27;105664;1260;76478;-22
2023/10/05 09:38:17;;;;;;;6.40;2.20;;;;;;;16.25;53.03;99594.77;105413;1258;74905;-23
2023/10/05 09:40:47;;;;;;;4.60;2.20;;;;;;;16.42;52.83;99588.02;105490;1257;61076;-23
2023/10/05 09:43:19;;;;;;;6.60;2.20;;;;;;;16.43;52.10;99587.71;105447;1260;61083;-23
2023/10/05 09:45:52;;;;;;;7.00;1.90;;;;;;;16.47;51.91;99587.55;105557;1261;72452;-23
2023/10/05 09:48:21;;;;;;;8.00;2.50;;;;;;;16.57;52.10;99586.45;105243;1257;74784;-24
2023/10/05 09:50:49;;;;;;;8.20;2.90;;;;;;;16.64;51.61;99587.27;105691;1260;73746;-24
2023/10/05 09:53:20;;;;;;;6.00;2.10;;;;;;;16.86;50.76;99577.64;105502;1262;61058;-24
2023/10/05 09:55:53;;;;;;;5.80;2.60;;;;;;;16.76;50.38;99572.25;105149;1263;62429;-23
2023/10/05 09:58:21;;;;;;;4.40;2.30;;;;;;;16.59;51.00;99569.16;105510;1263;74291;-23
2023/10/05 10:00:49;;;;;;;6.20;2.10;;;;;;;16.68;50.82;99569.04;105660;1260;76442;-23
2023/10/05 10:03:17;;;;;;;6.30;2.40;;;;;;;16.91;50.79;99567.80;105646;1258;74672;-23
2023/10/05 10:06:08;;;;;;;8.20;2.60;;;;;;;17.31;49.97;99563.73;105441;1257;62540;-24
2023/10/05 10:08:50;;;;;;;11.30;3.30;;;;;;;17.43;49.50;99555.82;105459;1256;61232;-24
2023/10/05 10:11:19;;;;;;;6.90;2.80;;;;;;;17.75;49.00;99548.27;105234;1261;74679;-24
2023/10/05 10:13:52;;;;;;;4.90;2.00;;;;;;;18.04;47.88;99535.73;105609;1260;74712;-24
2023/10/05 10:16:21;;;;;;;4.30;1.80;;;;;;;18.06;47.07;99531.39;105444;1263;74002;-24
2023/10/05 10:18:57;;;;;;;10.70;2.90;;;;;;;18.41;46.81;99535.48;105374;1258;61153;-24
2023/10/05 10:21:48;;;;;;;6.80;2.40;;;;;;;18.59;46.09;99533.27;105414;1264;62083;-21
2023/10/05 10:24:17;;;;;;;6.90;2.40;;;;;;;18.85;45.43;99529.17;105564;1258;74935;-22
2023/10/05 10:27:07;;;;;;;5.40;2.10;;;;;;;19.01;44.60;99526.05;105146;1264;74852;-21
2023/10/05 10:29:47;;;;;;;7.20;2.60;;;;;;;18.99;43.84;99516.70;105507;1261;74991;-21
2023/10/05 10:32:19;;;;;;;5.10;2.20;;;;;;;18.92;44.27;99520.19;105287;1260;61163;-23
2023/10/05 10:37:39;;;;;;;4.60;1.90;;;;;;;18.74;44.05;99499.80;105456;1260;74050;-24
2023/10/05 10:45:41;;;;;;;5.20;2.10;;;;;;;19.01;43.83;99496.50;105631;1253;61188;-23
2023/10/05 10:48:28;;;;;;;6.80;1.90;;;;;;;19.22;43.27;99491.76;105659;1260;61983;-23
2023/10/05 10:51:10;;;;;;;8.20;2.50;;;;;;;19.10;42.35;99476.55;105747;1251;75880;-23
2023/10/05 10:53:39;;;;;;;4.80;2.20;;;;;;;19.03;43.18;99469.45;105764;1257;74587;-23
2023/10/05 10:56:20;;;;;;;10.80;2.50;;;;;;;19.09;43.26;99471.97;105739;1251;71841;-23
2023/10/05 10:58:56;;;;;;;4.80;2.10;;;;;;;18.96;43.73;99465.84;105924;1256;62311;-23
2023/10/05 11:01:41;;;;;;;4.80;2.10;;;;;;;18.93;43.33;99465.20;105744;1260;62444;-23
2023/10/05 11:04:26;;;;;;;5.90;2.60;;;;;;;18.53;43.59;99463.57;105764;1257;74298;-23
2023/10/05 11:07:05;;;;;;;7.50;2.70;;;;;;;18.69;43.70;99466.05;105686;1260;74788;-23
2023/10/05 11:09:37;;;;;;;6.30;2.50;;;;;;;19.07;42.78;99466.90;105747;1252;72899;-24
2023/10/05 11:12:10;;;;;;;7.10;2.60;;;;;;;19.09;41.60;99461.55;105904;1254;61167;-24
2023/10/05 11:14:42;;;;;;;5.50;2.30;;;;;;;18.84;42.62;99458.63;105724;1254;61158;-23
2023/10/05 11:17:23;;;;;;;7.00;2.40;;;;;;;18.96;42.53;99454.84;105734;1254;75880;-23
2023/10/05 11:19:51;;;;;;;5.40;2.20;;;;;;;19.05;42.73;99451.80;105722;1253;74589;-23
2023/10/05 11:22:23;;;;;;;5.60;2.60;;;;;;;18.93;41.82;99444.45;105899;1254;74627;-24
2023/10/05 11:25:14;;;;;;;4.70;2.20;;;;;;;18.64;42.32;99439.12;105674;1263;62119;-23
2023/10/05 11:27:48;;;;;;;6.10;2.50;;;;;;;18.19;43.64;99445.96;105620;1261;61185;-23
2023/10/05 11:30:18;;;;;;;7.10;2.30;;;;;;;18.19;43.72;99443.48;105683;1261;75088;-23
2023/10/05 11:32:58;;;;;;;4.80;1.90;;;;;;;18.50;42.98;99437.02;105670;1254;73795;-24
2023/10/05 11:35:48;;;;;;;4.70;1.90;;;;;;;18.28;43.94;99438.52;105878;1257;74188;-24
2023/10/05 11:38:19;;;;;;;4.40;2.30;;;;;;;18.24;43.21;99433.11;105745;1259;61168;-24
2023/10/05 11:40:50;;;;;;;5.40;2.10;;;;;;;18.33;42.69;99428.98;105562;1253;61109;-24
2023/10/05 11:43:22;;;;;;;4.60;1.80;;;;;;;18.39;42.22;99419.67;105572;1256;75795;-22
2023/10/05 11:46:24;;;;;;;4.30;1.90;;;;;;;18.08;43.08;99414.20;105590;1258;74108;-22
2023/10/05 11:48:54;;;;;;;6.80;2.30;;;;;;;17.88;42.94;99417.20;105556;1261;71624;-21
2023/10/05 11:51:41;;;;;;;5.60;2.00;;;;;;;17.82;43.30;99407.11;105895;1252;62115;-21
2023/10/05 11:54:10;;;;;;;7.70;2.60;;;;;;;17.58;44.09;99407.33;105658;1252;61144;-22
2023/10/05 11:56:41;;;;;;;4.20;2.30;;;;;;;17.69;44.16;99398.27;105953;1254;74030;-22
2023/10/05 11:59:10;;;;;;;8.20;2.40;;;;;;;17.89;43.69;99391.52;105652;1254;76843;-21
2023/10/05 12:01:40;;;;;;;7.30;2.20;;;;;;;17.96;43.90;99392.80;105716;1255;74527;-22
2023/10/05 12:04:09;;;;;;;5.10;2.30;;;;;;;18.06;43.66;99392.84;105858;1256;61519;-22
2023/10/05 12:06:39;;;;;;;5.50;2.30;;;;;;;18.11;43.68;99386.55;105867;1256;61935;-23
2023/10/05 12:09:07;;;;;;;6.40;1.90;;;;;;;18.21;43.13;99381.95;105793;1254;76678;-23
2023/10/05 12:11:38;;;;;;;5.00;2.40;;;;;;;18.24;43.27;99382.27;105662;1251;75521;-22
2023/10/05 12:14:06;;;;;;;3.90;2.30;;;;;;;18.35;43.18;99381.99;105709;1259;73843;-21
2023/10/05 12:16:34;;;;;;;4.70;1.80;;;;;;;18.45;43.10;99374.14;105738;1256;61261;-21
2023/10/05 12:19:13;;;;;;;5.10;2.20;;;;;;;18.23;42.28;99369.46;105947;1256;61201;-22
2023/10/05 12:21:45;;;;;;;7.40;2.10;;;;;;;18.10;43.12;99368.75;105939;1251;76201;-21
2023/10/05 12:24:13;;;;;;;5.70;2.10;;;;;;;18.05;42.52;99362.58;105681;1260;75830;-21
2023/10/05 12:26:44;;;;;;;6.80;2.30;;;;;;;17.87;42.50;99362.36;105535;1254;74588;-21